sensor_id;sensor_type;location;lat;lon;timestamp;temperature;humidity
25332;DHT22;13284;52.748;13.452;2023-07-13T00:02:05;16.90;99.90
25332;DHT22;13284;52.748;13.452;2023-07-13T00:04:31;16.90;99.90
25332;DHT22;13284;52.748;13.452;2023-07-13T00:06:57;16.90;99.90
25332;DHT22;13284;52.748;13.452;2023-07-13T00:09:23;16.80;99.90
25332;DHT22;13284;52.748;13.452;2023-07-13T00:11:53;16.80;99.90
25332;DHT22;13284;52.748;13.452;2023-07-13T00:14:19;16.70;99.90
25332;DHT22;13284;52.748;13.452;2023-07-13T00:16:45;16.70;99.90
25332;DHT22;13284;52.748;13.452;2023-07-13T00:19:12;16.70;99.90
25332;DHT22;13284;52.748;13.452;2023-07-13T00:21:41;16.60;99.90
25332;DHT22;13284;52.748;13.452;2023-07-13T00:24:09;16.60;99.90
25332;DHT22;13284;52.748;13.452;2023-07-13T00:26:38;16.60;99.90
25332;DHT22;13284;52.748;13.452;2023-07-13T00:29:04;16.60;99.90
25332;DHT22;13284;52.748;13.452;2023-07-13T00:31:31;16.60;99.90
25332;DHT22;13284;52.748;13.452;2023-07-13T00:33:57;16.60;99.90
25332;DHT22;13284;52.748;13.452;2023-07-13T00:36:22;16.60;99.90
25332;DHT22;13284;52.748;13.452;2023-07-13T00:38:48;16.50;99.90
25332;DHT22;13284;52.748;13.452;2023-07-13T00:41:13;16.50;99.90
25332;DHT22;13284;52.748;13.452;2023-07-13T00:43:40;16.30;99.90
25332;DHT22;13284;52.748;13.452;2023-07-13T00:46:16;16.30;99.90
25332;DHT22;13284;52.748;13.452;2023-07-13T00:48:43;16.10;99.90
25332;DHT22;13284;52.748;13.452;2023-07-13T00:51:10;16.10;99.90
25332;DHT22;13284;52.748;13.452;2023-07-13T00:53:36;16.10;99.90
25332;DHT22;13284;52.748;13.452;2023-07-13T00:56:02;16.00;99.90
25332;DHT22;13284;52.748;13.452;2023-07-13T00:58:28;15.90;99.90
25332;DHT22;13284;52.748;13.452;2023-07-13T01:00:54;15.80;99.90
25332;DHT22;13284;52.748;13.452;2023-07-13T01:03:20;15.80;99.90
25332;DHT22;13284;52.748;13.452;2023-07-13T01:05:48;15.80;99.90
25332;DHT22;13284;52.748;13.452;2023-07-13T01:08:15;15.70;99.90
25332;DHT22;13284;52.748;13.452;2023-07-13T01:10:41;15.60;99.90
25332;DHT22;13284;52.748;13.452;2023-07-13T01:13:08;15.60;99.90
25332;DHT22;13284;52.748;13.452;2023-07-13T01:15:37;15.70;99.90
25332;DHT22;13284;52.748;13.452;2023-07-13T01:18:07;15.60;99.90
25332;DHT22;13284;52.748;13.452;2023-07-13T01:20:33;15.60;99.90
25332;DHT22;13284;52.748;13.452;2023-07-13T01:23:08;15.60;99.90
25332;DHT22;13284;52.748;13.452;2023-07-13T01:25:35;15.60;99.90
25332;DHT22;13284;52.748;13.452;2023-07-13T01:28:02;15.60;99.90
25332;DHT22;13284;52.748;13.452;2023-07-13T01:30:28;15.60;99.90
25332;DHT22;13284;52.748;13.452;2023-07-13T01:32:54;15.60;99.90
25332;DHT22;13284;52.748;13.452;2023-07-13T01:35:19;15.50;99.90
25332;DHT22;13284;52.748;13.452;2023-07-13T01:37:45;15.60;99.90
25332;DHT22;13284;52.748;13.452;2023-07-13T01:40:11;15.50;99.90
25332;DHT22;13284;52.748;13.452;2023-07-13T01:42:37;15.40;99.90
25332;DHT22;13284;52.748;13.452;2023-07-13T01:45:03;15.40;99.90
25332;DHT22;13284;52.748;13.452;2023-07-13T01:47:29;15.40;99.90
25332;DHT22;13284;52.748;13.452;2023-07-13T01:49:56;15.40;99.90
25332;DHT22;13284;52.748;13.452;2023-07-13T01:52:22;15.30;99.90
25332;DHT22;13284;52.748;13.452;2023-07-13T01:54:50;15.40;99.90
25332;DHT22;13284;52.748;13.452;2023-07-13T01:57:16;15.40;99.90
25332;DHT22;13284;52.748;13.452;2023-07-13T01:59:42;15.40;99.90
25332;DHT22;13284;52.748;13.452;2023-07-13T02:02:08;15.30;99.90
25332;DHT22;13284;52.748;13.452;2023-07-13T02:04:33;15.30;99.90
25332;DHT22;13284;52.748;13.452;2023-07-13T02:06:59;15.30;99.90
25332;DHT22;13284;52.748;13.452;2023-07-13T02:09:24;15.30;99.90
25332;DHT22;13284;52.748;13.452;2023-07-13T02:11:50;15.30;99.90
25332;DHT22;13284;52.748;13.452;2023-07-13T02:14:15;15.10;99.90
25332;DHT22;13284;52.748;13.452;2023-07-13T02:16:42;15.10;99.90
25332;DHT22;13284;52.748;13.452;2023-07-13T02:19:08;15.10;99.90
25332;DHT22;13284;52.748;13.452;2023-07-13T02:21:34;15.10;99.90
25332;DHT22;13284;52.748;13.452;2023-07-13T02:23:59;15.10;99.90
25332;DHT22;13284;52.748;13.452;2023-07-13T02:26:26;15.10;99.90
25332;DHT22;13284;52.748;13.452;2023-07-13T02:28:54;15.10;99.90
25332;DHT22;13284;52.748;13.452;2023-07-13T02:31:23;15.10;99.90
25332;DHT22;13284;52.748;13.452;2023-07-13T02:33:48;15.00;99.90
25332;DHT22;13284;52.748;13.452;2023-07-13T02:36:14;15.00;99.90
25332;DHT22;13284;52.748;13.452;2023-07-13T02:38:41;15.00;99.90
25332;DHT22;13284;52.748;13.452;2023-07-13T02:41:13;14.70;99.90
25332;DHT22;13284;52.748;13.452;2023-07-13T02:43:39;14.50;99.90
25332;DHT22;13284;52.748;13.452;2023-07-13T02:46:04;14.60;99.90
25332;DHT22;13284;52.748;13.452;2023-07-13T02:48:37;14.60;99.90
25332;DHT22;13284;52.748;13.452;2023-07-13T02:51:03;14.70;99.90
25332;DHT22;13284;52.748;13.452;2023-07-13T02:53:29;14.70;99.90
25332;DHT22;13284;52.748;13.452;2023-07-13T02:55:55;14.70;99.90
25332;DHT22;13284;52.748;13.452;2023-07-13T02:58:20;14.70;99.90
25332;DHT22;13284;52.748;13.452;2023-07-13T03:00:46;14.70;99.90
25332;DHT22;13284;52.748;13.452;2023-07-13T03:03:13;14.80;99.90
25332;DHT22;13284;52.748;13.452;2023-07-13T03:05:41;14.70;99.90
25332;DHT22;13284;52.748;13.452;2023-07-13T03:08:11;14.70;99.90
25332;DHT22;13284;52.748;13.452;2023-07-13T03:10:37;14.70;99.90
25332;DHT22;13284;52.748;13.452;2023-07-13T03:13:03;14.80;99.90
25332;DHT22;13284;52.748;13.452;2023-07-13T03:15:29;14.80;99.90
25332;DHT22;13284;52.748;13.452;2023-07-13T03:17:54;14.80;99.90
25332;DHT22;13284;52.748;13.452;2023-07-13T03:20:20;14.80;99.90
25332;DHT22;13284;52.748;13.452;2023-07-13T03:22:46;14.70;99.90
25332;DHT22;13284;52.748;13.452;2023-07-13T03:25:11;14.70;99.90
25332;DHT22;13284;52.748;13.452;2023-07-13T03:27:37;14.70;99.90
25332;DHT22;13284;52.748;13.452;2023-07-13T03:30:05;14.70;99.90
25332;DHT22;13284;52.748;13.452;2023-07-13T03:32:31;14.70;99.90
25332;DHT22;13284;52.748;13.452;2023-07-13T03:34:56;14.70;99.90
25332;DHT22;13284;52.748;13.452;2023-07-13T03:37:22;14.80;99.90
25332;DHT22;13284;52.748;13.452;2023-07-13T03:39:48;14.80;99.90
25332;DHT22;13284;52.748;13.452;2023-07-13T03:42:14;14.80;99.90
25332;DHT22;13284;52.748;13.452;2023-07-13T03:44:40;14.70;99.90
25332;DHT22;13284;52.748;13.452;2023-07-13T03:47:06;14.60;99.90
25332;DHT22;13284;52.748;13.452;2023-07-13T03:49:34;14.50;99.90
25332;DHT22;13284;52.748;13.452;2023-07-13T03:52:00;14.50;99.90
25332;DHT22;13284;52.748;13.452;2023-07-13T03:54:25;14.60;99.90
25332;DHT22;13284;52.748;13.452;2023-07-13T03:56:51;14.70;99.90
25332;DHT22;13284;52.748;13.452;2023-07-13T03:59:16;14.80;99.90
25332;DHT22;13284;52.748;13.452;2023-07-13T04:01:43;14.80;99.90
25332;DHT22;13284;52.748;13.452;2023-07-13T04:04:09;14.70;99.90
25332;DHT22;13284;52.748;13.452;2023-07-13T04:06:34;14.70;99.90
25332;DHT22;13284;52.748;13.452;2023-07-13T04:09:01;14.70;99.90
25332;DHT22;13284;52.748;13.452;2023-07-13T04:11:29;14.80;99.90
25332;DHT22;13284;52.748;13.452;2023-07-13T04:13:57;14.90;99.90
25332;DHT22;13284;52.748;13.452;2023-07-13T04:16:23;14.90;99.90
25332;DHT22;13284;52.748;13.452;2023-07-13T04:18:49;15.00;99.90
25332;DHT22;13284;52.748;13.452;2023-07-13T04:21:15;15.10;99.90
25332;DHT22;13284;52.748;13.452;2023-07-13T04:23:41;15.20;99.90
25332;DHT22;13284;52.748;13.452;2023-07-13T04:26:07;15.40;99.90
25332;DHT22;13284;52.748;13.452;2023-07-13T04:28:33;15.50;99.90
25332;DHT22;13284;52.748;13.452;2023-07-13T04:30:59;15.70;99.90
25332;DHT22;13284;52.748;13.452;2023-07-13T04:33:26;15.80;99.90
25332;DHT22;13284;52.748;13.452;2023-07-13T04:35:54;15.90;99.90
25332;DHT22;13284;52.748;13.452;2023-07-13T04:38:24;16.10;99.90
25332;DHT22;13284;52.748;13.452;2023-07-13T04:40:50;16.20;99.90
25332;DHT22;13284;52.748;13.452;2023-07-13T04:43:16;16.40;99.90
25332;DHT22;13284;52.748;13.452;2023-07-13T04:45:41;16.70;99.90
25332;DHT22;13284;52.748;13.452;2023-07-13T04:48:07;16.80;99.90
25332;DHT22;13284;52.748;13.452;2023-07-13T04:50:32;16.80;99.90
25332;DHT22;13284;52.748;13.452;2023-07-13T04:52:58;16.80;99.90
25332;DHT22;13284;52.748;13.452;2023-07-13T04:55:24;16.70;99.90
25332;DHT22;13284;52.748;13.452;2023-07-13T04:57:50;16.80;99.90
25332;DHT22;13284;52.748;13.452;2023-07-13T05:00:16;16.90;99.90
25332;DHT22;13284;52.748;13.452;2023-07-13T05:02:44;17.00;99.90
25332;DHT22;13284;52.748;13.452;2023-07-13T05:05:10;17.20;99.90
25332;DHT22;13284;52.748;13.452;2023-07-13T05:07:36;17.30;99.90
25332;DHT22;13284;52.748;13.452;2023-07-13T05:10:02;17.40;99.90
25332;DHT22;13284;52.748;13.452;2023-07-13T05:12:29;17.60;99.90
25332;DHT22;13284;52.748;13.452;2023-07-13T05:14:54;17.70;99.90
25332;DHT22;13284;52.748;13.452;2023-07-13T05:17:20;17.80;99.90
25332;DHT22;13284;52.748;13.452;2023-07-13T05:19:45;18.00;99.90
25332;DHT22;13284;52.748;13.452;2023-07-13T05:22:11;18.10;99.90
25332;DHT22;13284;52.748;13.452;2023-07-13T05:24:36;18.20;99.90
25332;DHT22;13284;52.748;13.452;2023-07-13T05:27:02;18.20;99.90
25332;DHT22;13284;52.748;13.452;2023-07-13T05:29:28;18.40;99.90
25332;DHT22;13284;52.748;13.452;2023-07-13T05:31:53;18.60;99.90
25332;DHT22;13284;52.748;13.452;2023-07-13T05:34:19;18.60;99.90
25332;DHT22;13284;52.748;13.452;2023-07-13T05:36:44;18.70;99.90
25332;DHT22;13284;52.748;13.452;2023-07-13T05:39:10;18.70;99.90
25332;DHT22;13284;52.748;13.452;2023-07-13T05:41:36;18.70;99.90
25332;DHT22;13284;52.748;13.452;2023-07-13T05:44:02;18.70;99.90
25332;DHT22;13284;52.748;13.452;2023-07-13T05:46:30;18.90;99.90
25332;DHT22;13284;52.748;13.452;2023-07-13T05:48:56;19.00;99.90
25332;DHT22;13284;52.748;13.452;2023-07-13T05:51:21;19.20;99.90
25332;DHT22;13284;52.748;13.452;2023-07-13T05:53:47;19.20;99.90
25332;DHT22;13284;52.748;13.452;2023-07-13T05:56:12;19.50;99.90
25332;DHT22;13284;52.748;13.452;2023-07-13T05:58:38;19.70;99.90
25332;DHT22;13284;52.748;13.452;2023-07-13T06:01:10;19.80;99.90
25332;DHT22;13284;52.748;13.452;2023-07-13T06:03:35;20.00;99.90
25332;DHT22;13284;52.748;13.452;2023-07-13T06:06:04;20.30;99.90
25332;DHT22;13284;52.748;13.452;2023-07-13T06:08:30;20.40;99.90
25332;DHT22;13284;52.748;13.452;2023-07-13T06:11:02;20.30;99.90
25332;DHT22;13284;52.748;13.452;2023-07-13T06:13:28;20.50;99.90
25332;DHT22;13284;52.748;13.452;2023-07-13T06:15:54;20.60;99.90
25332;DHT22;13284;52.748;13.452;2023-07-13T06:18:19;20.70;99.90
25332;DHT22;13284;52.748;13.452;2023-07-13T06:20:45;20.70;99.90
25332;DHT22;13284;52.748;13.452;2023-07-13T06:23:10;20.80;99.90
25332;DHT22;13284;52.748;13.452;2023-07-13T06:25:36;20.90;99.90
25332;DHT22;13284;52.748;13.452;2023-07-13T06:28:01;21.10;99.90
25332;DHT22;13284;52.748;13.452;2023-07-13T06:30:27;21.40;99.90
25332;DHT22;13284;52.748;13.452;2023-07-13T06:32:53;21.20;99.90
25332;DHT22;13284;52.748;13.452;2023-07-13T06:35:18;21.30;99.90
25332;DHT22;13284;52.748;13.452;2023-07-13T06:37:44;21.60;99.90
25332;DHT22;13284;52.748;13.452;2023-07-13T06:40:10;21.60;99.90
25332;DHT22;13284;52.748;13.452;2023-07-13T06:42:35;21.50;99.90
25332;DHT22;13284;52.748;13.452;2023-07-13T06:45:01;22.00;99.90
25332;DHT22;13284;52.748;13.452;2023-07-13T06:47:27;22.10;99.90
25332;DHT22;13284;52.748;13.452;2023-07-13T06:49:52;22.20;99.90
25332;DHT22;13284;52.748;13.452;2023-07-13T06:52:18;22.20;99.90
25332;DHT22;13284;52.748;13.452;2023-07-13T06:54:43;22.30;99.90
25332;DHT22;13284;52.748;13.452;2023-07-13T06:57:09;22.20;99.90
25332;DHT22;13284;52.748;13.452;2023-07-13T06:59:34;22.10;99.90
25332;DHT22;13284;52.748;13.452;2023-07-13T07:02:00;22.30;99.90
25332;DHT22;13284;52.748;13.452;2023-07-13T07:04:25;22.20;99.90
25332;DHT22;13284;52.748;13.452;2023-07-13T07:06:51;21.90;99.90
25332;DHT22;13284;52.748;13.452;2023-07-13T07:09:17;21.80;99.90
25332;DHT22;13284;52.748;13.452;2023-07-13T07:11:43;22.00;99.90
25332;DHT22;13284;52.748;13.452;2023-07-13T07:14:08;22.00;99.90
25332;DHT22;13284;52.748;13.452;2023-07-13T07:16:34;22.30;99.90
25332;DHT22;13284;52.748;13.452;2023-07-13T07:18:59;22.50;99.90
25332;DHT22;13284;52.748;13.452;2023-07-13T07:21:25;22.50;99.90
25332;DHT22;13284;52.748;13.452;2023-07-13T07:23:51;22.30;99.90
25332;DHT22;13284;52.748;13.452;2023-07-13T07:26:17;22.20;99.90
25332;DHT22;13284;52.748;13.452;2023-07-13T07:28:43;22.00;99.90
25332;DHT22;13284;52.748;13.452;2023-07-13T07:31:09;22.00;99.90
25332;DHT22;13284;52.748;13.452;2023-07-13T07:33:34;22.10;99.90
25332;DHT22;13284;52.748;13.452;2023-07-13T07:36:01;22.20;99.90
25332;DHT22;13284;52.748;13.452;2023-07-13T07:38:26;22.40;99.90
25332;DHT22;13284;52.748;13.452;2023-07-13T07:40:52;22.50;99.90
25332;DHT22;13284;52.748;13.452;2023-07-13T07:43:18;22.50;99.90
25332;DHT22;13284;52.748;13.452;2023-07-13T07:45:45;22.60;99.90
25332;DHT22;13284;52.748;13.452;2023-07-13T07:48:10;22.40;99.90
25332;DHT22;13284;52.748;13.452;2023-07-13T07:50:36;22.40;99.90
25332;DHT22;13284;52.748;13.452;2023-07-13T07:53:02;22.50;99.90
25332;DHT22;13284;52.748;13.452;2023-07-13T07:55:28;22.50;99.90
25332;DHT22;13284;52.748;13.452;2023-07-13T07:57:54;22.60;99.90
25332;DHT22;13284;52.748;13.452;2023-07-13T08:00:20;22.70;99.90
25332;DHT22;13284;52.748;13.452;2023-07-13T08:02:45;22.80;99.90
25332;DHT22;13284;52.748;13.452;2023-07-13T08:05:11;23.00;99.90
25332;DHT22;13284;52.748;13.452;2023-07-13T08:07:38;23.50;99.90
25332;DHT22;13284;52.748;13.452;2023-07-13T08:10:04;24.10;99.90
25332;DHT22;13284;52.748;13.452;2023-07-13T08:12:34;24.50;99.90
25332;DHT22;13284;52.748;13.452;2023-07-13T08:14:59;24.20;99.90
25332;DHT22;13284;52.748;13.452;2023-07-13T08:17:26;24.10;99.90
25332;DHT22;13284;52.748;13.452;2023-07-13T08:19:52;24.40;99.90
25332;DHT22;13284;52.748;13.452;2023-07-13T08:22:17;24.80;99.90
25332;DHT22;13284;52.748;13.452;2023-07-13T08:24:46;24.50;99.90
25332;DHT22;13284;52.748;13.452;2023-07-13T08:27:12;25.00;99.90
25332;DHT22;13284;52.748;13.452;2023-07-13T08:29:39;24.70;99.90
25332;DHT22;13284;52.748;13.452;2023-07-13T08:32:06;25.50;99.90
25332;DHT22;13284;52.748;13.452;2023-07-13T08:34:34;24.90;99.90
25332;DHT22;13284;52.748;13.452;2023-07-13T08:37:00;25.00;99.90
25332;DHT22;13284;52.748;13.452;2023-07-13T08:39:25;25.00;99.90
25332;DHT22;13284;52.748;13.452;2023-07-13T08:42:06;25.20;99.90
25332;DHT22;13284;52.748;13.452;2023-07-13T08:47:22;25.50;99.90
25332;DHT22;13284;52.748;13.452;2023-07-13T08:49:49;25.90;98.70
25332;DHT22;13284;52.748;13.452;2023-07-13T08:52:34;25.80;99.00
25332;DHT22;13284;52.748;13.452;2023-07-13T08:55:13;25.20;98.30
25332;DHT22;13284;52.748;13.452;2023-07-13T08:57:41;24.80;99.00
25332;DHT22;13284;52.748;13.452;2023-07-13T09:00:10;25.30;99.90
25332;DHT22;13284;52.748;13.452;2023-07-13T09:02:55;26.10;99.70
25332;DHT22;13284;52.748;13.452;2023-07-13T09:05:33;26.00;98.30
25332;DHT22;13284;52.748;13.452;2023-07-13T09:08:16;25.90;99.30
25332;DHT22;13284;52.748;13.452;2023-07-13T09:10:49;26.40;99.90
25332;DHT22;13284;52.748;13.452;2023-07-13T09:13:26;26.60;99.80
25332;DHT22;13284;52.748;13.452;2023-07-13T09:15:53;26.70;99.00
25332;DHT22;13284;52.748;13.452;2023-07-13T09:18:36;26.40;98.80
25332;DHT22;13284;52.748;13.452;2023-07-13T09:21:10;26.50;98.80
25332;DHT22;13284;52.748;13.452;2023-07-13T09:23:38;27.20;99.20
25332;DHT22;13284;52.748;13.452;2023-07-13T09:26:16;27.30;98.30
25332;DHT22;13284;52.748;13.452;2023-07-13T09:28:45;27.70;98.80
25332;DHT22;13284;52.748;13.452;2023-07-13T09:31:26;29.30;97.60
25332;DHT22;13284;52.748;13.452;2023-07-13T09:33:54;29.50;97.40
25332;DHT22;13284;52.748;13.452;2023-07-13T09:36:29;28.10;97.20
25332;DHT22;13284;52.748;13.452;2023-07-13T09:39:12;26.70;97.30
25332;DHT22;13284;52.748;13.452;2023-07-13T09:41:49;26.70;98.20
25332;DHT22;13284;52.748;13.452;2023-07-13T09:44:50;26.90;98.70
25332;DHT22;13284;52.748;13.452;2023-07-13T09:47:28;26.60;98.40
25332;DHT22;13284;52.748;13.452;2023-07-13T09:50:00;25.90;98.80
25332;DHT22;13284;52.748;13.452;2023-07-13T09:52:28;25.50;99.30
25332;DHT22;13284;52.748;13.452;2023-07-13T09:55:04;25.40;99.90
25332;DHT22;13284;52.748;13.452;2023-07-13T09:57:30;25.40;99.10
25332;DHT22;13284;52.748;13.452;2023-07-13T09:59:56;25.10;99.30
25332;DHT22;13284;52.748;13.452;2023-07-13T10:02:31;24.90;99.80
25332;DHT22;13284;52.748;13.452;2023-07-13T10:05:09;24.90;99.30
25332;DHT22;13284;52.748;13.452;2023-07-13T10:07:45;24.70;99.40
25332;DHT22;13284;52.748;13.452;2023-07-13T10:10:18;24.50;99.90
25332;DHT22;13284;52.748;13.452;2023-07-13T10:12:46;25.10;99.80
25332;DHT22;13284;52.748;13.452;2023-07-13T10:15:16;25.90;99.10
25332;DHT22;13284;52.748;13.452;2023-07-13T10:17:43;26.70;98.90
25332;DHT22;13284;52.748;13.452;2023-07-13T10:20:09;26.80;97.80
25332;DHT22;13284;52.748;13.452;2023-07-13T10:22:58;26.20;97.90
25332;DHT22;13284;52.748;13.452;2023-07-13T10:25:27;26.20;98.30
25332;DHT22;13284;52.748;13.452;2023-07-13T10:28:11;25.70;98.60
25332;DHT22;13284;52.748;13.452;2023-07-13T10:30:42;25.80;99.80
25332;DHT22;13284;52.748;13.452;2023-07-13T10:33:12;26.10;99.50
25332;DHT22;13284;52.748;13.452;2023-07-13T10:35:43;25.90;97.40
25332;DHT22;13284;52.748;13.452;2023-07-13T10:38:22;26.50;97.80
25332;DHT22;13284;52.748;13.452;2023-07-13T10:40:55;26.60;97.10
25332;DHT22;13284;52.748;13.452;2023-07-13T10:43:27;26.70;97.50
25332;DHT22;13284;52.748;13.452;2023-07-13T10:45:53;26.10;96.30
25332;DHT22;13284;52.748;13.452;2023-07-13T10:48:21;25.70;98.30
25332;DHT22;13284;52.748;13.452;2023-07-13T10:50:50;25.40;97.60
25332;DHT22;13284;52.748;13.452;2023-07-13T10:53:21;24.90;98.60
25332;DHT22;13284;52.748;13.452;2023-07-13T10:58:21;24.80;99.60
25332;DHT22;13284;52.748;13.452;2023-07-13T11:01:10;24.60;99.90
25332;DHT22;13284;52.748;13.452;2023-07-13T11:06:37;25.80;99.90
25332;DHT22;13284;52.748;13.452;2023-07-13T11:09:38;26.60;97.70
25332;DHT22;13284;52.748;13.452;2023-07-13T11:15:01;26.80;98.60
25332;DHT22;13284;52.748;13.452;2023-07-13T11:22:49;28.00;96.30
25332;DHT22;13284;52.748;13.452;2023-07-13T11:25:28;28.00;95.80
25332;DHT22;13284;52.748;13.452;2023-07-13T11:38:29;28.10;93.40
25332;DHT22;13284;52.748;13.452;2023-07-13T11:40:58;28.20;93.40
25332;DHT22;13284;52.748;13.452;2023-07-13T11:43:28;28.10;92.60
25332;DHT22;13284;52.748;13.452;2023-07-13T11:45:53;27.80;92.60
25332;DHT22;13284;52.748;13.452;2023-07-13T11:48:26;28.10;92.70
25332;DHT22;13284;52.748;13.452;2023-07-13T11:50:58;27.90;92.70
25332;DHT22;13284;52.748;13.452;2023-07-13T11:53:28;26.80;93.70
25332;DHT22;13284;52.748;13.452;2023-07-13T11:55:58;26.50;95.00
25332;DHT22;13284;52.748;13.452;2023-07-13T11:58:25;27.10;94.40
25332;DHT22;13284;52.748;13.452;2023-07-13T12:00:53;28.30;94.60
25332;DHT22;13284;52.748;13.452;2023-07-13T12:03:22;28.60;93.50
25332;DHT22;13284;52.748;13.452;2023-07-13T12:05:58;29.40;93.70
25332;DHT22;13284;52.748;13.452;2023-07-13T12:08:25;30.00;92.30
25332;DHT22;13284;52.748;13.452;2023-07-13T12:11:18;29.40;90.10
25332;DHT22;13284;52.748;13.452;2023-07-13T12:13:45;28.60;92.80
25332;DHT22;13284;52.748;13.452;2023-07-13T12:16:22;27.90;91.50
25332;DHT22;13284;52.748;13.452;2023-07-13T12:18:52;27.10;92.10
25332;DHT22;13284;52.748;13.452;2023-07-13T12:21:19;27.20;92.70
25332;DHT22;13284;52.748;13.452;2023-07-13T12:23:49;27.70;92.70
25332;DHT22;13284;52.748;13.452;2023-07-13T12:26:15;28.30;91.40
25332;DHT22;13284;52.748;13.452;2023-07-13T12:28:52;27.70;92.50
25332;DHT22;13284;52.748;13.452;2023-07-13T12:31:29;28.10;93.30
25332;DHT22;13284;52.748;13.452;2023-07-13T12:33:58;28.60;92.10
25332;DHT22;13284;52.748;13.452;2023-07-13T12:36:23;28.30;91.70
25332;DHT22;13284;52.748;13.452;2023-07-13T12:38:49;28.50;91.90
25332;DHT22;13284;52.748;13.452;2023-07-13T12:41:46;28.20;92.00
25332;DHT22;13284;52.748;13.452;2023-07-13T12:44:14;27.40;92.00
25332;DHT22;13284;52.748;13.452;2023-07-13T12:46:54;27.60;92.40
25332;DHT22;13284;52.748;13.452;2023-07-13T12:49:25;27.40;92.20
25332;DHT22;13284;52.748;13.452;2023-07-13T12:52:03;26.70;92.40
25332;DHT22;13284;52.748;13.452;2023-07-13T12:54:30;26.60;93.00
25332;DHT22;13284;52.748;13.452;2023-07-13T12:56:58;26.30;93.20
25332;DHT22;13284;52.748;13.452;2023-07-13T12:59:28;26.00;93.90
25332;DHT22;13284;52.748;13.452;2023-07-13T13:01:54;26.00;94.60
25332;DHT22;13284;52.748;13.452;2023-07-13T13:04:20;26.40;94.20
25332;DHT22;13284;52.748;13.452;2023-07-13T13:06:47;26.90;94.10
25332;DHT22;13284;52.748;13.452;2023-07-13T13:09:14;27.70;93.50
25332;DHT22;13284;52.748;13.452;2023-07-13T13:11:40;27.60;93.10
25332;DHT22;13284;52.748;13.452;2023-07-13T13:14:06;27.40;93.10
25332;DHT22;13284;52.748;13.452;2023-07-13T13:16:35;27.20;92.60
25332;DHT22;13284;52.748;13.452;2023-07-13T13:21:37;27.50;91.20
25332;DHT22;13284;52.748;13.452;2023-07-13T13:24:10;27.60;91.10
25332;DHT22;13284;52.748;13.452;2023-07-13T13:26:36;27.60;92.20
25332;DHT22;13284;52.748;13.452;2023-07-13T13:29:09;27.20;93.50
25332;DHT22;13284;52.748;13.452;2023-07-13T13:31:36;27.10;92.10
25332;DHT22;13284;52.748;13.452;2023-07-13T13:34:02;27.40;92.40
25332;DHT22;13284;52.748;13.452;2023-07-13T13:36:30;27.40;91.00
25332;DHT22;13284;52.748;13.452;2023-07-13T13:38:56;27.20;90.50
25332;DHT22;13284;52.748;13.452;2023-07-13T13:41:21;26.60;91.00
25332;DHT22;13284;52.748;13.452;2023-07-13T13:43:47;26.40;91.10
25332;DHT22;13284;52.748;13.452;2023-07-13T13:46:21;26.60;92.10
25332;DHT22;13284;52.748;13.452;2023-07-13T13:48:56;26.90;92.00
25332;DHT22;13284;52.748;13.452;2023-07-13T13:51:23;27.00;92.30
25332;DHT22;13284;52.748;13.452;2023-07-13T13:53:49;27.10;92.20
25332;DHT22;13284;52.748;13.452;2023-07-13T13:56:17;27.20;92.60
25332;DHT22;13284;52.748;13.452;2023-07-13T13:58:43;27.10;92.30
25332;DHT22;13284;52.748;13.452;2023-07-13T14:01:21;26.90;91.40
25332;DHT22;13284;52.748;13.452;2023-07-13T14:03:51;26.60;92.30
25332;DHT22;13284;52.748;13.452;2023-07-13T14:06:16;26.70;93.20
25332;DHT22;13284;52.748;13.452;2023-07-13T14:08:42;26.70;92.60
25332;DHT22;13284;52.748;13.452;2023-07-13T14:11:12;27.00;92.80
25332;DHT22;13284;52.748;13.452;2023-07-13T14:13:42;26.70;92.80
25332;DHT22;13284;52.748;13.452;2023-07-13T14:16:11;26.70;93.20
25332;DHT22;13284;52.748;13.452;2023-07-13T14:18:38;26.90;92.20
25332;DHT22;13284;52.748;13.452;2023-07-13T14:21:04;26.60;92.10
25332;DHT22;13284;52.748;13.452;2023-07-13T14:23:34;26.60;92.20
25332;DHT22;13284;52.748;13.452;2023-07-13T14:25:59;26.40;92.60
25332;DHT22;13284;52.748;13.452;2023-07-13T14:28:26;26.60;92.40
25332;DHT22;13284;52.748;13.452;2023-07-13T14:30:56;26.40;92.80
25332;DHT22;13284;52.748;13.452;2023-07-13T14:33:21;26.40;93.10
25332;DHT22;13284;52.748;13.452;2023-07-13T14:35:48;26.00;92.90
25332;DHT22;13284;52.748;13.452;2023-07-13T14:38:18;26.10;93.70
25332;DHT22;13284;52.748;13.452;2023-07-13T14:40:45;26.50;93.40
25332;DHT22;13284;52.748;13.452;2023-07-13T14:43:12;26.60;92.90
25332;DHT22;13284;52.748;13.452;2023-07-13T14:45:49;26.60;92.60
25332;DHT22;13284;52.748;13.452;2023-07-13T14:48:21;26.50;93.40
25332;DHT22;13284;52.748;13.452;2023-07-13T14:50:55;26.70;93.20
25332;DHT22;13284;52.748;13.452;2023-07-13T14:53:22;26.90;92.60
25332;DHT22;13284;52.748;13.452;2023-07-13T14:55:47;26.80;92.40
25332;DHT22;13284;52.748;13.452;2023-07-13T14:58:15;26.60;92.60
25332;DHT22;13284;52.748;13.452;2023-07-13T15:00:41;26.80;93.30
25332;DHT22;13284;52.748;13.452;2023-07-13T15:03:19;26.60;92.80
25332;DHT22;13284;52.748;13.452;2023-07-13T15:05:47;26.60;93.20
25332;DHT22;13284;52.748;13.452;2023-07-13T15:08:13;26.70;93.00
25332;DHT22;13284;52.748;13.452;2023-07-13T15:10:40;26.70;92.50
25332;DHT22;13284;52.748;13.452;2023-07-13T15:15:44;26.80;92.80
25332;DHT22;13284;52.748;13.452;2023-07-13T15:18:12;26.50;92.20
25332;DHT22;13284;52.748;13.452;2023-07-13T15:20:40;26.60;92.10
25332;DHT22;13284;52.748;13.452;2023-07-13T15:23:08;26.50;92.60
25332;DHT22;13284;52.748;13.452;2023-07-13T15:25:34;26.50;91.50
25332;DHT22;13284;52.748;13.452;2023-07-13T15:28:01;26.80;92.20
25332;DHT22;13284;52.748;13.452;2023-07-13T15:30:30;26.70;91.70
25332;DHT22;13284;52.748;13.452;2023-07-13T15:33:00;26.60;91.40
25332;DHT22;13284;52.748;13.452;2023-07-13T15:35:28;26.60;91.80
25332;DHT22;13284;52.748;13.452;2023-07-13T15:37:53;26.90;92.50
25332;DHT22;13284;52.748;13.452;2023-07-13T15:40:20;26.70;91.10
25332;DHT22;13284;52.748;13.452;2023-07-13T15:42:47;26.30;91.90
25332;DHT22;13284;52.748;13.452;2023-07-13T15:45:22;25.80;92.00
25332;DHT22;13284;52.748;13.452;2023-07-13T15:47:49;25.60;92.50
25332;DHT22;13284;52.748;13.452;2023-07-13T15:50:16;25.50;93.00
25332;DHT22;13284;52.748;13.452;2023-07-13T15:52:43;25.30;93.20
25332;DHT22;13284;52.748;13.452;2023-07-13T15:55:11;25.20;93.60